Aérodrome :
LOGIN :

S'inscrire | Disclaimer

   EN    FR    IT 

 










Légende :    VFR   VFR Marginal   IFR   IFR Intensif   IFR Très Intensif
Visi : 
Plafond : 
>= 8 km
>= 3000ft
5 à 8 km
1000 à 3000 ft
1500m à 5 km
500 à 1000 ft
800 à 1500m
200 à 500 ft
< 800m
< 200 ft
Symboles :   Orages  Brouillard  Fortes neiges  Fortes précipitations  Vent > 20 kt
SIGMETs :   Divers  Orages  Givrage  Turbulence  Onde Orograph.  Cendres Volcan.







- Altitude de l'aérodrome : 177 ft
- Code IATA : BRI


LIBD - Palese Macchie Bari

DERNIER METAR :
  • 191950Z 26011KT CAVOK 20/07 Q1011

METARs EXPIRÉS :
  • 191920Z 26014KT CAVOK 21/07 Q1010
  • 191850Z 28013KT CAVOK 21/06 Q1010
  • 191820Z 27012KT CAVOK 22/05 Q1010
  • 191750Z 29011KT 250V320 CAVOK 22/07 Q1010
  • 191720Z 27011KT 250V320 CAVOK 23/06 Q1010

TAF TAF LIBD
Valide du 19 à 18h jusqu'au 20 à 18h UTC


191700Z 1918/2018 26018G28KT 9999 SCT040
BECMG 1918/1921 23010KT
BECMG 2008/2010 30012KT
Pas de NOTAMs connus pour ce terrain.
3 SIGMETs publiés pour la FIR Brindisi (LIBB) :
 
Turbulence forte
LIBB SIGMET 5 VALID 192000/200000 LIIB
LIBB BRINDISI FIR SEV TURB FCST N OF LINE N4027 E01533 - N4206 E01655 ABV FL200 NC=
Orages noyés dans la masse
LIBB SIGMET 4 VALID 192000/200000 LIIB
LIBB BRINDISI FIR EMBD TS FCST N OF LINE N4203 E01655 - N4057 E01516 TOP ABV FL260 MOV ENE=
Orages noyés dans la masse
LIBB SIGMET 3 VALID 191800/192000 LIIB
LIBB BRINDISI FIR EMBD TS FCST N OF LINE N4112 E01507 - N4214 E01630 TOP ABV FL260 MOV ENE=



MET'MAP, la Météo Aéronautique d'un coup d'oeil ! - Copyright ORBIFLY Décembre 2007 - Disclaimer

ORBIFLY MET'MAP TEAM :

Programmation & Développement : Alexandra Zaïnal
Conception & Développement : Baudouin d'Aumeries
Co-Programmation & Développement : Marc-Olivier Méhu
Soutien technique & logistique : Manuel Goepfert

Contact : metmap@orbifly.com




SOURCES & CREDITS :

   NOAA